Time;durP1;ratioP1;P1;durP2;ratioP2;P2;SDS_P1;SDS_P2;PMS_P1;PMS_P2;Temp;Humidity;BMP_temperature;BMP_pressure;BME280_temperature;BME280_humidity;BME280_pressure;Samples;Min_cycle;Max_cycle;Signal;HPM_P1;HPM_P2
2024/02/28 00:01:51;;;;;;;42.28;20.17;;;1.00;99.90;;;;;;4961176;28;20089;-77
2024/02/28 00:04:17;;;;;;;43.53;20.35;;;1.00;99.90;;;;;;4945141;28;20069;-76
2024/02/28 00:06:43;;;;;;;47.50;21.23;;;0.50;99.90;;;;;;4964436;28;20065;-77
2024/02/28 00:09:09;;;;;;;31.60;15.50;;;0.20;99.90;;;;;;4950778;28;20026;-77
2024/02/28 00:11:35;;;;;;;51.35;21.23;;;0.50;99.90;;;;;;4942995;28;20523;-77
2024/02/28 00:14:02;;;;;;;39.90;17.50;;;0.60;99.90;;;;;;4960466;28;20038;-77
2024/02/28 00:16:27;;;;;;;39.63;16.70;;;0.70;99.90;;;;;;4975158;28;20043;-77
2024/02/28 00:18:53;;;;;;;33.50;15.85;;;0.80;99.90;;;;;;4946932;28;20038;-77
2024/02/28 00:21:18;;;;;;;35.72;17.20;;;0.90;99.90;;;;;;4958036;28;20035;-77
2024/02/28 00:23:44;;;;;;;43.35;19.83;;;0.70;99.90;;;;;;4961634;28;20113;-77
2024/02/28 00:26:12;;;;;;;25.58;12.77;;;0.60;99.90;;;;;;4948257;28;20038;-77
2024/02/28 00:28:37;;;;;;;26.65;13.07;;;0.80;99.90;;;;;;4945891;28;20129;-77
2024/02/28 00:31:03;;;;;;;34.85;15.93;;;1.10;99.90;;;;;;4945351;28;20038;-77
2024/02/28 00:33:28;;;;;;;26.85;14.02;;;0.90;99.90;;;;;;4963763;28;20507;-77
2024/02/28 00:35:54;;;;;;;35.38;15.52;;;0.90;99.90;;;;;;4961528;28;20469;-77
2024/02/28 00:38:20;;;;;;;36.03;17.20;;;1.00;99.90;;;;;;4965324;28;20058;-77
2024/02/28 00:40:45;;;;;;;33.38;13.90;;;0.90;99.90;;;;;;4948609;28;20397;-77
2024/02/28 00:43:11;;;;;;;40.95;17.63;;;0.80;99.90;;;;;;4961340;28;20027;-77
2024/02/28 00:45:36;;;;;;;26.90;12.38;;;0.60;99.90;;;;;;4948382;28;20421;-77
2024/02/28 00:48:02;;;;;;;27.17;14.32;;;0.70;99.90;;;;;;4964844;28;20101;-77
2024/02/28 00:50:27;;;;;;;30.13;14.90;;;0.80;99.90;;;;;;4961691;28;20455;-77
2024/02/28 00:52:53;;;;;;;36.38;16.55;;;0.90;99.90;;;;;;4977852;28;20030;-77
2024/02/28 00:55:18;;;;;;;29.23;13.50;;;0.90;99.90;;;;;;4973120;28;20042;-77
2024/02/28 00:57:44;;;;;;;25.73;13.57;;;0.70;99.90;;;;;;4960449;28;20097;-78
2024/02/28 01:00:10;;;;;;;23.83;11.88;;;0.70;99.90;;;;;;4941261;28;20395;-77
2024/02/28 01:02:36;;;;;;;47.13;16.45;;;1.00;99.90;;;;;;4976436;28;20500;-77
2024/02/28 01:05:01;;;;;;;30.83;13.75;;;0.90;99.90;;;;;;4976996;28;20073;-77
2024/02/28 01:07:27;;;;;;;71.20;17.85;;;0.80;99.90;;;;;;4959942;28;20100;-78
2024/02/28 01:09:53;;;;;;;147.30;19.95;;;0.60;99.90;;;;;;4945685;28;20030;-77
2024/02/28 01:12:18;;;;;;;86.45;18.30;;;0.50;99.90;;;;;;4962770;28;20522;-77
2024/02/28 01:14:44;;;;;;;129.93;20.85;;;0.60;99.90;;;;;;4944589;28;20038;-77
2024/02/28 01:17:09;;;;;;;57.10;16.70;;;0.60;99.90;;;;;;4960790;28;20034;-77
2024/02/28 01:19:35;;;;;;;29.58;13.90;;;0.50;99.90;;;;;;4992416;28;20519;-77
2024/02/28 01:22:00;;;;;;;107.55;18.42;;;0.50;99.90;;;;;;4962763;28;20586;-77
2024/02/28 01:24:26;;;;;;;36.92;13.50;;;0.40;99.90;;;;;;4960003;28;20038;-77
2024/02/28 01:26:52;;;;;;;31.73;15.07;;;0.40;99.90;;;;;;4947042;28;20243;-77
2024/02/28 01:29:17;;;;;;;92.35;19.20;;;0.60;99.90;;;;;;4955963;28;20492;-77
2024/02/28 01:31:43;;;;;;;44.30;13.48;;;0.60;99.90;;;;;;4953912;28;20034;-77
2024/02/28 01:34:08;;;;;;;47.83;16.75;;;0.50;99.90;;;;;;4948841;28;20042;-77
2024/02/28 01:36:34;;;;;;;106.88;24.63;;;0.40;99.90;;;;;;4945879;28;20037;-77
2024/02/28 01:39:00;;;;;;;33.83;12.52;;;0.30;99.90;;;;;;4961787;28;20043;-77
2024/02/28 01:41:28;;;;;;;52.15;16.63;;;0.30;99.90;;;;;;4948369;28;20042;-77
2024/02/28 01:43:54;;;;;;;36.72;15.98;;;0.40;99.90;;;;;;4974916;28;20379;-77
2024/02/28 01:46:26;;;;;;;60.90;19.20;;;0.50;99.90;;;;;;4958451;28;20127;-77
2024/02/28 01:48:55;;;;;;;25.33;12.88;;;0.70;99.90;;;;;;4945675;28;20101;-77
2024/02/28 01:51:24;;;;;;;31.58;15.27;;;0.70;99.90;;;;;;4948052;28;20042;-77
2024/02/28 01:53:51;;;;;;;28.80;14.57;;;0.80;99.90;;;;;;4953621;28;20533;-77
2024/02/28 01:56:16;;;;;;;32.90;15.45;;;0.80;99.90;;;;;;4965084;28;20480;-87
2024/02/28 01:58:46;;;;;;;35.42;15.52;;;0.80;99.90;;;;;;4980151;28;20026;-90
2024/02/28 02:01:13;;;;;;;35.75;15.43;;;0.90;99.90;;;;;;4982564;28;20026;-85
2024/02/28 02:03:39;;;;;;;34.10;16.67;;;0.90;99.90;;;;;;4966769;28;20034;-89
2024/02/28 02:06:04;;;;;;;35.35;18.00;;;1.00;99.90;;;;;;4967722;28;20023;-85
2024/02/28 02:08:30;;;;;;;32.63;15.88;;;1.20;99.90;;;;;;4969374;28;20050;-84
2024/02/28 02:10:56;;;;;;;36.15;16.05;;;1.30;99.90;;;;;;4955469;28;20038;-88
2024/02/28 02:13:22;;;;;;;38.13;16.65;;;1.30;99.90;;;;;;4982926;28;20034;-89
2024/02/28 02:15:47;;;;;;;31.05;15.18;;;1.30;99.90;;;;;;4950183;28;20154;-87
2024/02/28 02:18:13;;;;;;;30.75;15.38;;;1.30;99.90;;;;;;4953029;28;20093;-90
2024/02/28 02:20:40;;;;;;;42.45;18.60;;;1.40;99.90;;;;;;4951125;28;20045;-87
2024/02/28 02:23:06;;;;;;;33.63;14.85;;;1.40;99.90;;;;;;4969935;28;20039;-87
2024/02/28 02:25:31;;;;;;;39.70;17.67;;;1.30;99.90;;;;;;4949657;28;20097;-89
2024/02/28 02:28:03;;;;;;;43.67;18.65;;;1.40;99.90;;;;;;4969609;28;20038;-89
2024/02/28 02:30:29;;;;;;;29.23;14.07;;;1.40;99.90;;;;;;4967414;28;20053;-88
2024/02/28 02:32:54;;;;;;;39.22;17.05;;;1.50;99.90;;;;;;4970458;28;20034;-86
2024/02/28 02:35:20;;;;;;;38.33;16.58;;;1.50;99.90;;;;;;4953447;28;20561;-89
2024/02/28 02:37:47;;;;;;;40.13;17.58;;;1.50;99.90;;;;;;4964050;28;20042;-90
2024/02/28 02:40:13;;;;;;;48.70;22.85;;;1.40;99.90;;;;;;4966307;28;20484;-89
2024/02/28 02:42:39;;;;;;;36.65;16.25;;;1.40;99.90;;;;;;4981933;28;20041;-89
2024/02/28 02:45:05;;;;;;;39.38;17.30;;;1.30;99.90;;;;;;4953004;28;20038;-89
2024/02/28 02:47:31;;;;;;;45.13;19.20;;;1.40;99.90;;;;;;4967954;28;20038;-89
2024/02/28 02:49:56;;;;;;;60.80;24.70;;;1.40;99.90;;;;;;4962615;28;20062;-87
2024/02/28 02:52:22;;;;;;;38.58;16.05;;;1.40;99.90;;;;;;4967805;28;20109;-88
2024/02/28 02:54:47;;;;;;;48.97;21.90;;;1.50;99.90;;;;;;4956213;28;20082;-90
2024/02/28 02:57:13;;;;;;;50.05;21.60;;;1.50;99.90;;;;;;4983192;28;20120;-88
2024/02/28 02:59:39;;;;;;;56.83;24.25;;;1.50;99.90;;;;;;4966711;28;20041;-84
2024/02/28 03:02:05;;;;;;;61.63;24.48;;;1.50;99.90;;;;;;4952358;28;20511;-88
2024/02/28 03:04:30;;;;;;;53.92;21.42;;;1.50;99.90;;;;;;4981286;28;20042;-82
2024/02/28 03:06:56;;;;;;;52.13;19.25;;;1.60;99.90;;;;;;4947488;28;20030;-79
2024/02/28 03:09:22;;;;;;;48.17;20.27;;;1.70;99.90;;;;;;4946322;28;20037;-78
2024/02/28 03:11:47;;;;;;;61.75;24.35;;;1.70;99.90;;;;;;4961791;28;20122;-79
2024/02/28 03:14:13;;;;;;;48.55;20.50;;;1.70;99.90;;;;;;4976667;28;20038;-78
2024/02/28 03:16:45;;;;;;;65.18;27.02;;;1.80;99.90;;;;;;4961940;28;20037;-78
2024/02/28 03:19:11;;;;;;;56.80;22.35;;;1.80;99.90;;;;;;4957614;28;20038;-79
2024/02/28 03:21:36;;;;;;;35.13;15.88;;;1.80;99.90;;;;;;4963562;28;20034;-79
2024/02/28 03:24:02;;;;;;;42.97;17.63;;;1.90;99.90;;;;;;4962223;28;20027;-79
2024/02/28 03:26:28;;;;;;;57.90;22.40;;;2.00;99.90;;;;;;4946573;28;20058;-78
2024/02/28 03:28:53;;;;;;;87.88;31.98;;;2.00;99.90;;;;;;4946945;28;20627;-79
2024/02/28 03:31:19;;;;;;;83.28;30.58;;;2.00;99.90;;;;;;4961510;28;20045;-79
2024/02/28 03:33:46;;;;;;;60.65;23.10;;;1.90;99.90;;;;;;4979804;28;20039;-79
2024/02/28 03:36:12;;;;;;;66.93;27.90;;;2.00;99.90;;;;;;4960315;28;20031;-79
2024/02/28 03:38:37;;;;;;;58.42;24.42;;;2.00;99.90;;;;;;4946065;28;20035;-80
2024/02/28 03:41:03;;;;;;;90.45;34.03;;;2.00;99.90;;;;;;4958718;28;20126;-79
2024/02/28 03:43:29;;;;;;;79.68;32.00;;;2.00;99.90;;;;;;4958666;28;20343;-79
2024/02/28 03:45:55;;;;;;;58.03;22.80;;;2.10;99.90;;;;;;4946871;28;20499;-78
2024/02/28 03:48:20;;;;;;;67.72;26.65;;;2.10;99.90;;;;;;4962756;28;20038;-79
2024/02/28 03:50:46;;;;;;;60.75;24.10;;;2.20;99.90;;;;;;4975948;28;20180;-79
2024/02/28 03:53:11;;;;;;;55.50;21.73;;;2.20;99.90;;;;;;4943516;28;20459;-79
2024/02/28 03:55:37;;;;;;;60.33;26.35;;;2.30;99.90;;;;;;4948157;28;20503;-80
2024/02/28 03:58:03;;;;;;;75.13;29.30;;;2.30;99.90;;;;;;4961011;28;20518;-80
2024/02/28 04:00:29;;;;;;;57.10;22.77;;;2.40;99.90;;;;;;4951309;28;20177;-78
2024/02/28 04:02:54;;;;;;;71.50;30.30;;;2.40;99.90;;;;;;4977777;28;20035;-79
2024/02/28 04:05:20;;;;;;;80.25;31.48;;;2.40;99.90;;;;;;4962791;28;20030;-79
2024/02/28 04:07:45;;;;;;;59.00;25.98;;;2.40;99.90;;;;;;4979305;28;20039;-79
2024/02/28 04:10:11;;;;;;;73.07;28.90;;;2.40;99.90;;;;;;4951768;28;20031;-79
2024/02/28 04:12:37;;;;;;;66.07;27.95;;;2.50;99.90;;;;;;4964942;28;20034;-79
2024/02/28 04:15:03;;;;;;;69.68;28.50;;;2.50;99.90;;;;;;4961755;28;20101;-79
2024/02/28 04:17:28;;;;;;;67.97;27.27;;;2.60;99.90;;;;;;4962081;28;20065;-80
2024/02/28 04:19:54;;;;;;;76.70;33.95;;;2.50;99.90;;;;;;4947824;28;20041;-78
2024/02/28 04:22:19;;;;;;;53.85;22.70;;;2.50;99.90;;;;;;4947740;28;20106;-79
2024/02/28 04:24:45;;;;;;;71.63;29.48;;;2.50;99.90;;;;;;4943947;28;20034;-79
2024/02/28 04:27:11;;;;;;;88.75;35.78;;;2.50;99.90;;;;;;4946451;28;20033;-79
2024/02/28 04:29:37;;;;;;;83.75;32.17;;;2.50;99.90;;;;;;4958575;28;20487;-79
2024/02/28 04:32:03;;;;;;;63.33;27.17;;;2.60;99.90;;;;;;4964110;28;20042;-79
2024/02/28 04:34:29;;;;;;;66.15;24.73;;;2.60;99.90;;;;;;4976711;28;20510;-79
2024/02/28 04:36:54;;;;;;;63.88;28.38;;;2.60;99.90;;;;;;4956673;28;20031;-79
2024/02/28 04:39:20;;;;;;;81.38;29.23;;;2.60;99.90;;;;;;4961356;28;20507;-79
2024/02/28 04:41:45;;;;;;;68.00;23.80;;;2.70;99.90;;;;;;4959820;28;20567;-79
2024/02/28 04:44:11;;;;;;;68.93;27.88;;;2.70;99.90;;;;;;4960927;28;20461;-78
2024/02/28 04:46:37;;;;;;;85.25;32.53;;;2.70;99.90;;;;;;4960053;28;20174;-79
2024/02/28 04:49:02;;;;;;;67.38;27.17;;;2.70;99.90;;;;;;4944318;28;20117;-79
2024/02/28 04:51:28;;;;;;;81.47;33.50;;;2.70;99.90;;;;;;4944106;28;20039;-79
2024/02/28 04:53:54;;;;;;;76.15;29.85;;;2.80;99.90;;;;;;4948522;28;20065;-79
2024/02/28 04:56:19;;;;;;;66.30;22.80;;;2.80;99.90;;;;;;4946558;28;20037;-79
2024/02/28 04:58:45;;;;;;;79.95;30.65;;;2.90;99.90;;;;;;4947394;28;20574;-80
2024/02/28 05:01:12;;;;;;;76.95;32.05;;;2.80;99.90;;;;;;4962570;28;20428;-79
2024/02/28 05:03:38;;;;;;;80.28;30.92;;;2.90;99.90;;;;;;4946381;28;20832;-79
2024/02/28 05:06:04;;;;;;;89.00;35.53;;;2.90;99.90;;;;;;4945507;28;20477;-79
2024/02/28 05:08:29;;;;;;;82.60;33.03;;;2.90;99.90;;;;;;4947116;28;20547;-80
2024/02/28 05:10:55;;;;;;;85.32;34.22;;;2.90;99.90;;;;;;4943625;28;20434;-80
2024/02/28 05:13:22;;;;;;;88.40;36.47;;;2.90;99.90;;;;;;4962156;28;20035;-79
2024/02/28 05:15:47;;;;;;;75.78;33.00;;;3.00;99.90;;;;;;4973348;28;20073;-78
2024/02/28 05:18:13;;;;;;;63.08;29.27;;;3.00;99.90;;;;;;4948363;28;20457;-79
2024/02/28 05:20:38;;;;;;;80.35;34.47;;;3.10;99.90;;;;;;4945999;28;20085;-79
2024/02/28 05:23:04;;;;;;;81.55;32.35;;;3.00;99.90;;;;;;4977105;28;20037;-80
2024/02/28 05:25:29;;;;;;;80.50;34.78;;;3.10;99.90;;;;;;4960374;28;20050;-79
2024/02/28 05:27:55;;;;;;;73.72;30.45;;;3.10;99.90;;;;;;4943905;28;20579;-79
2024/02/28 05:30:21;;;;;;;77.50;31.08;;;3.10;99.90;;;;;;4945666;28;20486;-79
2024/02/28 05:32:46;;;;;;;76.28;30.48;;;3.20;99.90;;;;;;4961573;28;20126;-79
2024/02/28 05:35:12;;;;;;;69.93;30.25;;;3.20;99.90;;;;;;4944387;28;20130;-79
2024/02/28 05:37:38;;;;;;;70.82;28.60;;;3.20;99.90;;;;;;4945691;28;20073;-78
2024/02/28 05:40:04;;;;;;;84.25;33.20;;;3.20;99.90;;;;;;4957392;28;20059;-79
2024/02/28 05:42:31;;;;;;;73.63;28.67;;;3.20;99.90;;;;;;4960403;28;20030;-79
2024/02/28 05:44:56;;;;;;;73.97;31.17;;;3.20;99.90;;;;;;4956949;28;20039;-79
2024/02/28 05:47:22;;;;;;;52.83;22.13;;;3.20;99.90;;;;;;4956058;28;20454;-79
2024/02/28 05:49:48;;;;;;;74.60;30.88;;;3.20;99.90;;;;;;4943391;28;20047;-79
2024/02/28 05:52:14;;;;;;;79.97;33.42;;;3.20;99.90;;;;;;4962433;28;20434;-88
2024/02/28 05:54:40;;;;;;;95.45;40.45;;;3.20;99.90;;;;;;4958704;28;20042;-86
2024/02/28 05:57:06;;;;;;;78.22;32.20;;;3.20;99.90;;;;;;4971509;28;20047;-91
2024/02/28 05:59:31;;;;;;;80.47;32.25;;;3.20;99.90;;;;;;4976999;28;20062;-86
2024/02/28 06:01:57;;;;;;;72.00;26.10;;;3.20;99.90;;;;;;4980805;28;20059;-87
2024/02/28 06:04:23;;;;;;;96.97;36.33;;;3.30;99.90;;;;;;4971976;28;20389;-88
2024/02/28 06:06:50;;;;;;;71.00;29.30;;;3.40;99.90;;;;;;4983923;28;20396;-87
2024/02/28 06:09:16;;;;;;;74.63;27.80;;;3.40;99.90;;;;;;4964907;28;20035;-87
2024/02/28 06:11:41;;;;;;;91.45;36.60;;;3.40;99.90;;;;;;4987175;28;20080;-86
2024/02/28 06:14:07;;;;;;;81.03;32.03;;;3.30;99.90;;;;;;4968271;28;20038;-89
2024/02/28 06:16:32;;;;;;;69.85;29.48;;;3.30;99.90;;;;;;4952464;28;20038;-92
2024/02/28 06:18:58;;;;;;;75.90;31.13;;;3.30;99.90;;;;;;4969520;28;20034;-88
2024/02/28 06:21:24;;;;;;;95.03;36.65;;;3.40;99.90;;;;;;4979282;28;20031;-89
2024/02/28 06:23:49;;;;;;;71.72;28.85;;;3.40;99.90;;;;;;4953275;28;20043;-87
2024/02/28 06:26:16;;;;;;;31.77;13.20;;;3.30;99.90;;;;;;4968498;28;20070;-86
2024/02/28 06:28:45;;;;;;;73.63;31.23;;;3.30;99.90;;;;;;4955956;28;20030;-88
2024/02/28 06:31:16;;;;;;;75.00;26.90;;;3.40;99.90;;;;;;4976836;28;20878;-90
2024/02/28 06:33:41;;;;;;;79.90;32.53;;;3.50;99.90;;;;;;4955403;28;20133;-92
2024/02/28 06:36:07;;;;;;;85.47;33.92;;;3.50;99.90;;;;;;4965226;28;20117;-80
2024/02/28 06:38:35;;;;;;;79.28;30.35;;;3.60;99.90;;;;;;4964103;28;20406;-81
2024/02/28 06:41:04;;;;;;;103.78;40.22;;;3.50;99.90;;;;;;4974013;28;20110;-80
2024/02/28 06:43:30;;;;;;;87.15;33.28;;;3.70;99.90;;;;;;4976483;28;20026;-80
2024/02/28 06:45:56;;;;;;;71.57;27.70;;;3.60;99.90;;;;;;4993678;28;20035;-80
2024/02/28 06:48:21;;;;;;;80.43;31.70;;;3.60;99.90;;;;;;4977822;28;20030;-79
2024/02/28 06:50:50;;;;;;;83.80;32.90;;;3.70;99.90;;;;;;4945726;28;20031;-80
2024/02/28 06:53:17;;;;;;;93.10;36.75;;;3.60;99.90;;;;;;4977246;28;20484;-80
2024/02/28 06:55:42;;;;;;;84.78;32.30;;;3.60;99.90;;;;;;4948841;28;20125;-80
2024/02/28 06:58:08;;;;;;;75.45;25.05;;;3.60;99.90;;;;;;4964706;28;20069;-81
2024/02/28 07:00:33;;;;;;;82.53;32.42;;;3.60;99.90;;;;;;4961988;28;20362;-80
2024/02/28 07:02:59;;;;;;;72.53;29.40;;;3.60;99.90;;;;;;4970901;28;20031;-80
2024/02/28 07:05:24;;;;;;;74.85;29.45;;;3.60;99.90;;;;;;4964271;28;20034;-80
2024/02/28 07:07:50;;;;;;;87.75;34.85;;;3.70;99.90;;;;;;4963885;28;20046;-79
2024/02/28 07:10:15;;;;;;;107.22;40.47;;;3.70;99.90;;;;;;4961312;28;20042;-79
2024/02/28 07:12:41;;;;;;;77.47;26.98;;;3.60;99.90;;;;;;4958766;28;20596;-79
2024/02/28 07:15:07;;;;;;;76.20;28.45;;;3.70;99.90;;;;;;4956715;28;20088;-81
2024/02/28 07:17:33;;;;;;;72.07;29.13;;;3.80;99.90;;;;;;4960095;28;20081;-80
2024/02/28 07:19:58;;;;;;;78.50;30.70;;;3.80;99.90;;;;;;4947341;28;20034;-79
2024/02/28 07:22:24;;;;;;;96.90;35.78;;;3.80;99.90;;;;;;4963281;28;20023;-79
2024/02/28 07:24:49;;;;;;;106.75;38.90;;;3.80;99.90;;;;;;4975849;28;20088;-79
2024/02/28 07:27:15;;;;;;;80.05;32.53;;;3.80;99.90;;;;;;4976358;28;20566;-80
2024/02/28 07:29:41;;;;;;;110.93;40.83;;;4.00;99.90;;;;;;4964707;28;20400;-80
2024/02/28 07:32:07;;;;;;;83.85;29.55;;;3.90;99.90;;;;;;4948270;28;20146;-80
2024/02/28 07:34:33;;;;;;;80.63;31.58;;;4.00;99.90;;;;;;4959385;28;20039;-80
2024/02/28 07:36:59;;;;;;;81.82;30.17;;;3.90;99.90;;;;;;4958595;28;20034;-80
2024/02/28 07:39:25;;;;;;;81.72;30.33;;;4.00;99.90;;;;;;4947114;28;20027;-79
2024/02/28 07:41:51;;;;;;;80.70;29.73;;;4.00;99.90;;;;;;4945509;28;20039;-80
2024/02/28 07:44:16;;;;;;;78.35;29.35;;;4.10;99.90;;;;;;4975189;28;20038;-80
2024/02/28 07:46:42;;;;;;;85.10;31.85;;;4.10;99.90;;;;;;4962667;28;20042;-80
2024/02/28 07:49:08;;;;;;;80.35;27.10;;;4.20;99.90;;;;;;4949508;28;20091;-81
2024/02/28 07:51:33;;;;;;;89.97;34.50;;;4.10;99.90;;;;;;4947049;28;20037;-80
2024/02/28 07:53:59;;;;;;;55.33;20.48;;;4.10;99.90;;;;;;4946839;28;20496;-81
2024/02/28 07:56:29;;;;;;;55.33;18.02;;;4.20;99.90;;;;;;4950325;28;20645;-78
2024/02/28 07:59:03;;;;;;;97.47;37.35;;;4.20;99.90;;;;;;4948393;28;20041;-79
2024/02/28 08:01:30;;;;;;;91.97;32.53;;;4.20;99.90;;;;;;4960195;28;20050;-79
2024/02/28 08:03:56;;;;;;;78.72;30.80;;;4.30;99.90;;;;;;4963524;28;20073;-79
2024/02/28 08:06:22;;;;;;;84.05;32.30;;;4.30;99.90;;;;;;4962491;28;20580;-78
2024/02/28 08:08:47;;;;;;;85.00;33.80;;;4.30;99.90;;;;;;4940432;28;20034;-80
2024/02/28 08:11:13;;;;;;;80.65;30.98;;;4.40;99.90;;;;;;4972558;28;20456;-79
2024/02/28 08:13:40;;;;;;;76.00;29.13;;;4.40;99.90;;;;;;4934875;28;20093;-79
2024/02/28 08:16:08;;;;;;;87.40;30.80;;;4.40;99.90;;;;;;4938353;28;20046;-79
2024/02/28 08:18:35;;;;;;;28.27;14.20;;;4.50;99.90;;;;;;4943050;28;20558;-79
2024/02/28 08:21:02;;;;;;;61.13;23.05;;;4.50;99.90;;;;;;4958105;28;20061;-80
2024/02/28 08:23:30;;;;;;;82.65;29.70;;;4.50;99.90;;;;;;4963420;28;20643;-79
2024/02/28 08:25:57;;;;;;;83.55;29.58;;;4.50;99.90;;;;;;4946127;28;20045;-79
2024/02/28 08:28:23;;;;;;;72.82;27.83;;;4.40;99.90;;;;;;4947524;28;20042;-79
2024/02/28 08:30:49;;;;;;;84.03;29.00;;;4.50;99.90;;;;;;4963359;28;20408;-80
2024/02/28 08:33:15;;;;;;;84.65;31.02;;;4.60;99.90;;;;;;4976650;28;20031;-80
2024/02/28 08:35:42;;;;;;;78.40;28.20;;;4.60;99.90;;;;;;4962343;28;20081;-79
2024/02/28 08:38:08;;;;;;;73.97;29.38;;;4.60;99.90;;;;;;4957527;28;20144;-80
2024/02/28 08:40:34;;;;;;;51.22;20.38;;;4.70;99.90;;;;;;4962268;28;20311;-80
2024/02/28 08:42:59;;;;;;;56.67;21.67;;;4.90;99.90;;;;;;4963054;28;20061;-80
2024/02/28 08:45:25;;;;;;;86.90;31.80;;;4.80;99.90;;;;;;4976169;28;20038;-80
2024/02/28 08:47:50;;;;;;;72.97;28.90;;;4.90;99.90;;;;;;4962833;28;20034;-80
2024/02/28 08:50:16;;;;;;;86.80;34.15;;;4.90;99.90;;;;;;4961845;28;20412;-79
2024/02/28 08:52:42;;;;;;;84.07;31.13;;;4.90;99.90;;;;;;4961422;28;20038;-79
2024/02/28 08:55:08;;;;;;;81.82;32.75;;;4.90;99.90;;;;;;4989595;28;20042;-86
2024/02/28 08:57:34;;;;;;;61.95;22.77;;;4.90;99.90;;;;;;4952997;28;20069;-89
2024/02/28 08:59:59;;;;;;;70.43;25.60;;;5.00;99.90;;;;;;4946425;28;20106;-90
2024/02/28 09:02:37;;;;;;;80.53;30.92;;;5.00;99.90;;;;;;4962863;28;20034;-88
2024/02/28 09:05:03;;;;;;;75.57;30.05;;;5.20;99.90;;;;;;4947473;28;20179;-89
2024/02/28 09:07:30;;;;;;;63.83;26.52;;;5.30;99.90;;;;;;4963627;28;20043;-88
2024/02/28 09:09:55;;;;;;;76.85;27.92;;;5.50;99.90;;;;;;4962417;28;20031;-90
2024/02/28 09:12:21;;;;;;;77.82;28.55;;;5.70;99.90;;;;;;4950199;28;20045;-89
2024/02/28 09:14:54;;;;;;;63.35;25.20;;;5.50;99.90;;;;;;4963401;28;20164;-86
2024/02/28 09:17:20;;;;;;;80.07;31.00;;;5.70;99.90;;;;;;4953196;28;20038;-82
2024/02/28 09:19:45;;;;;;;67.65;22.90;;;5.90;99.90;;;;;;4951858;28;20041;-85
2024/02/28 09:22:11;;;;;;;69.43;27.20;;;5.80;99.90;;;;;;4948775;28;20030;-86
2024/02/28 09:24:37;;;;;;;70.47;25.73;;;5.60;99.90;;;;;;4963249;28;20026;-87
2024/02/28 09:27:03;;;;;;;70.63;27.95;;;5.70;99.90;;;;;;4962970;28;20093;-83
2024/02/28 09:29:28;;;;;;;66.55;26.77;;;6.00;99.90;;;;;;4950092;28;20129;-83
2024/02/28 09:31:54;;;;;;;72.10;25.90;;;5.80;99.90;;;;;;4965813;28;20049;-84
2024/02/28 09:34:19;;;;;;;68.40;23.02;;;5.70;99.90;;;;;;4986881;28;20454;-81
2024/02/28 09:36:45;;;;;;;58.13;19.58;;;5.90;99.90;;;;;;4968623;28;20062;-86
2024/02/28 09:39:17;;;;;;;62.28;23.17;;;6.00;99.90;;;;;;4945856;28;20038;-83
2024/02/28 09:41:42;;;;;;;53.28;20.02;;;6.20;99.90;;;;;;4978162;28;20396;-84
2024/02/28 09:44:08;;;;;;;67.32;21.13;;;5.90;99.90;;;;;;4952600;28;20064;-84
2024/02/28 09:46:37;;;;;;;61.70;20.08;;;5.90;99.90;;;;;;4966981;28;20030;-83
2024/02/28 09:49:04;;;;;;;72.05;27.88;;;6.00;99.90;;;;;;4966247;28;20042;-84
2024/02/28 09:51:36;;;;;;;72.10;25.88;;;6.10;99.90;;;;;;4965736;28;20128;-84
2024/02/28 09:54:06;;;;;;;37.75;17.08;;;6.10;99.90;;;;;;4953484;28;20495;-86
2024/02/28 09:56:32;;;;;;;63.50;23.23;;;6.60;99.90;;;;;;4967692;28;20034;-84
2024/02/28 09:58:59;;;;;;;72.80;29.50;;;6.50;99.90;;;;;;4953658;28;20031;-88
2024/02/28 10:01:26;;;;;;;85.00;33.65;;;6.20;99.90;;;;;;4951403;28;20122;-81
2024/02/28 10:03:54;;;;;;;35.38;14.32;;;6.40;99.90;;;;;;4962030;28;20039;-80
2024/02/28 10:06:20;;;;;;;69.40;26.00;;;6.60;99.90;;;;;;4948836;28;20643;-82
2024/02/28 10:08:48;;;;;;;72.82;29.60;;;6.50;99.90;;;;;;4949160;28;20511;-81
2024/02/28 10:11:23;;;;;;;74.97;28.73;;;6.60;99.90;;;;;;4961782;28;20030;-81
2024/02/28 10:13:49;;;;;;;58.42;22.33;;;7.00;99.90;;;;;;4952015;28;20027;-82
2024/02/28 10:16:18;;;;;;;65.80;26.65;;;6.80;99.90;;;;;;4966448;28;20447;-81
2024/02/28 10:18:44;;;;;;;62.60;21.65;;;6.90;99.90;;;;;;4966191;28;20490;-82
2024/02/28 10:21:17;;;;;;;83.78;33.53;;;7.10;99.90;;;;;;4976998;28;20045;-81
2024/02/28 10:23:43;;;;;;;69.38;28.67;;;7.10;99.90;;;;;;4961305;28;20126;-82
2024/02/28 10:26:10;;;;;;;84.25;31.35;;;7.60;99.90;;;;;;4962289;28;20031;-82
2024/02/28 10:28:39;;;;;;;65.60;26.38;;;7.60;99.90;;;;;;4960516;28;20038;-82
2024/02/28 10:31:06;;;;;;;66.75;27.83;;;7.70;99.90;;;;;;4979420;28;20037;-82
2024/02/28 10:33:33;;;;;;;69.78;27.38;;;8.10;99.90;;;;;;4979613;28;20039;-83
2024/02/28 10:35:59;;;;;;;67.72;26.13;;;8.30;99.90;;;;;;4963655;28;20061;-83
2024/02/28 10:38:24;;;;;;;70.80;27.77;;;8.10;99.90;;;;;;4961693;28;20035;-83
2024/02/28 10:40:50;;;;;;;73.55;31.25;;;8.00;99.90;;;;;;4951849;28;20035;-83
2024/02/28 10:43:17;;;;;;;57.33;23.30;;;8.10;99.90;;;;;;4975529;28;20042;-82
2024/02/28 10:45:43;;;;;;;60.28;24.80;;;8.70;99.90;;;;;;4949117;28;20507;-89
2024/02/28 10:48:09;;;;;;;61.22;25.38;;;8.70;99.90;;;;;;4955168;28;20057;-88
2024/02/28 10:50:35;;;;;;;58.55;25.77;;;8.70;99.90;;;;;;4993375;28;20053;-85
2024/02/28 10:53:02;;;;;;;70.53;29.02;;;8.50;99.90;;;;;;4972746;28;20035;-87
2024/02/28 10:55:35;;;;;;;58.92;24.85;;;8.80;99.90;;;;;;4969113;28;20046;-85
2024/02/28 10:58:07;;;;;;;53.20;19.70;;;8.60;99.90;;;;;;4970201;28;20115;-86
2024/02/28 11:00:33;;;;;;;54.00;23.15;;;8.40;99.90;;;;;;4950354;28;20030;-87
2024/02/28 11:02:58;;;;;;;44.75;20.35;;;8.60;99.90;;;;;;4976788;28;20042;-87
2024/02/28 11:05:38;;;;;;;56.78;25.85;;;8.70;99.90;;;;;;4969118;28;20052;-86
2024/02/28 11:08:27;;;;;;;49.53;20.10;;;8.80;99.90;;;;;;4955152;28;20034;-86
2024/02/28 11:10:56;;;;;;;55.70;21.58;;;9.00;99.90;;;;;;4974926;28;20042;-87
2024/02/28 11:13:23;;;;;;;56.63;24.83;;;9.00;99.90;;;;;;4987692;28;20243;-86
2024/02/28 11:15:48;;;;;;;50.88;23.35;;;9.00;99.90;;;;;;4956426;28;20049;-87
2024/02/28 11:18:14;;;;;;;53.13;24.40;;;9.30;99.90;;;;;;4939945;28;20452;-83
2024/02/28 11:20:40;;;;;;;51.60;25.50;;;9.40;99.90;;;;;;4947386;28;20031;-85
2024/02/28 11:23:11;;;;;;;42.40;19.13;;;9.80;99.90;;;;;;4948749;28;20176;-84
2024/02/28 11:25:36;;;;;;;48.65;20.92;;;9.80;99.90;;;;;;4964949;28;20027;-84
2024/02/28 11:28:02;;;;;;;12.60;6.88;;;9.80;99.90;;;;;;4951394;28;20377;-83
2024/02/28 11:30:28;;;;;;;34.63;14.85;;;10.00;99.90;;;;;;4951306;28;20606;-84
2024/02/28 11:32:54;;;;;;;38.45;17.10;;;9.50;99.90;;;;;;4963972;28;20041;-85
2024/02/28 11:35:23;;;;;;;44.75;21.23;;;9.60;99.90;;;;;;4938022;28;20048;-87
2024/02/28 11:37:48;;;;;;;23.45;10.73;;;9.80;99.90;;;;;;4966104;28;20050;-87
2024/02/28 11:40:14;;;;;;;19.50;7.93;;;9.60;99.90;;;;;;4948837;28;20323;-86
2024/02/28 11:42:41;;;;;;;44.53;20.95;;;9.60;99.90;;;;;;4985214;28;20038;-87
2024/02/28 11:45:09;;;;;;;53.78;23.35;;;9.60;99.90;;;;;;4944557;28;20087;-86
2024/02/28 11:47:35;;;;;;;43.85;21.90;;;9.90;99.90;;;;;;4950310;28;20097;-86
2024/02/28 11:50:01;;;;;;;53.03;21.80;;;10.00;99.90;;;;;;4967001;28;20039;-86
2024/02/28 11:52:27;;;;;;;48.42;24.10;;;9.90;99.90;;;;;;4962160;28;20034;-86
2024/02/28 11:54:54;;;;;;;50.88;22.90;;;10.00;99.90;;;;;;4949894;28;20042;-86
2024/02/28 11:57:19;;;;;;;41.03;19.77;;;10.00;99.90;;;;;;4979294;28;20034;-86
2024/02/28 11:59:49;;;;;;;44.40;19.80;;;10.10;99.90;;;;;;4960649;28;20049;-86
2024/02/28 12:02:18;;;;;;;43.60;21.05;;;10.20;99.90;;;;;;4961040;28;20047;-86
2024/02/28 12:04:59;;;;;;;;;;;;;;;;;;;;;
2024/02/28 12:07:29;;;;;;;42.10;18.98;;;10.50;99.90;;;;;;4976758;28;20817;-86
2024/02/28 12:09:54;;;;;;;45.67;23.00;;;10.70;99.90;;;;;;4951940;28;20514;-84
2024/02/28 12:12:21;;;;;;;51.33;24.90;;;10.70;99.90;;;;;;4965590;28;20054;-86
2024/02/28 12:14:47;;;;;;;47.58;22.88;;;10.50;99.90;;;;;;4951606;28;20118;-85
2024/02/28 12:17:14;;;;;;;40.78;20.35;;;10.50;99.90;;;;;;4969017;28;20117;-85
2024/02/28 12:19:40;;;;;;;46.38;20.67;;;10.70;99.90;;;;;;4941276;28;20049;-88
2024/02/28 12:22:08;;;;;;;36.22;19.50;;;10.80;99.90;;;;;;4972856;28;20117;-87
2024/02/28 12:24:39;;;;;;;39.58;20.25;;;10.80;99.90;;;;;;4962847;28;20558;-85
2024/02/28 12:27:05;;;;;;;45.33;23.88;;;10.70;99.90;;;;;;4603816;28;9999614;-86
2024/02/28 12:29:33;;;;;;;40.38;21.58;;;11.00;99.90;;;;;;4947753;28;20033;-87
2024/02/28 12:32:02;;;;;;;35.05;17.85;;;11.10;99.90;;;;;;4946841;28;20045;-86
2024/02/28 12:34:31;;;;;;;44.97;22.33;;;11.30;99.90;;;;;;4938612;28;20045;-88